sensor_id;sensor_type;location;lat;lon;timestamp;P1;durP1;ratioP1;P2;durP2;ratioP2
50495;SDS011;38806;51.554;5.704;2023-06-26T00:01:04;22.17;;;18.67;;
50495;SDS011;38806;51.554;5.704;2023-06-26T00:03:05;19.92;;;17.40;;
50495;SDS011;38806;51.554;5.704;2023-06-26T00:05:05;21.13;;;18.97;;
50495;SDS011;38806;51.554;5.704;2023-06-26T00:07:05;20.00;;;17.90;;
50495;SDS011;38806;51.554;5.704;2023-06-26T00:09:05;21.53;;;19.33;;
50495;SDS011;38806;51.554;5.704;2023-06-26T00:11:06;23.20;;;20.77;;
50495;SDS011;38806;51.554;5.704;2023-06-26T00:13:06;21.20;;;18.95;;
50495;SDS011;38806;51.554;5.704;2023-06-26T00:15:07;21.10;;;18.70;;
50495;SDS011;38806;51.554;5.704;2023-06-26T00:17:08;21.67;;;19.35;;
50495;SDS011;38806;51.554;5.704;2023-06-26T00:19:08;18.65;;;16.65;;
50495;SDS011;38806;51.554;5.704;2023-06-26T00:21:08;21.57;;;19.37;;
50495;SDS011;38806;51.554;5.704;2023-06-26T00:23:08;21.57;;;19.37;;
50495;SDS011;38806;51.554;5.704;2023-06-26T00:25:08;21.10;;;18.90;;
50495;SDS011;38806;51.554;5.704;2023-06-26T00:27:09;21.23;;;17.93;;
50495;SDS011;38806;51.554;5.704;2023-06-26T00:29:09;19.80;;;17.80;;
50495;SDS011;38806;51.554;5.704;2023-06-26T00:31:09;18.37;;;16.43;;
50495;SDS011;38806;51.554;5.704;2023-06-26T00:33:09;20.83;;;17.80;;
50495;SDS011;38806;51.554;5.704;2023-06-26T00:35:09;20.38;;;18.17;;
50495;SDS011;38806;51.554;5.704;2023-06-26T00:37:10;20.97;;;18.10;;
50495;SDS011;38806;51.554;5.704;2023-06-26T00:39:10;18.45;;;16.55;;
50495;SDS011;38806;51.554;5.704;2023-06-26T00:41:10;15.60;;;13.40;;
50495;SDS011;38806;51.554;5.704;2023-06-26T00:43:12;16.15;;;14.30;;
50495;SDS011;38806;51.554;5.704;2023-06-26T00:45:12;15.88;;;12.80;;
50495;SDS011;38806;51.554;5.704;2023-06-26T00:47:14;14.25;;;12.50;;
50495;SDS011;38806;51.554;5.704;2023-06-26T00:49:14;14.57;;;13.05;;
50495;SDS011;38806;51.554;5.704;2023-06-26T00:51:15;16.45;;;14.60;;
50495;SDS011;38806;51.554;5.704;2023-06-26T00:53:15;14.07;;;12.50;;
50495;SDS011;38806;51.554;5.704;2023-06-26T00:55:15;14.25;;;12.48;;
50495;SDS011;38806;51.554;5.704;2023-06-26T00:57:15;14.55;;;12.38;;
50495;SDS011;38806;51.554;5.704;2023-06-26T00:59:16;15.55;;;12.52;;
50495;SDS011;38806;51.554;5.704;2023-06-26T01:01:16;13.70;;;12.18;;
50495;SDS011;38806;51.554;5.704;2023-06-26T01:03:17;15.60;;;12.48;;
50495;SDS011;38806;51.554;5.704;2023-06-26T01:05:17;15.07;;;12.82;;
50495;SDS011;38806;51.554;5.704;2023-06-26T01:07:20;14.85;;;12.20;;
50495;SDS011;38806;51.554;5.704;2023-06-26T01:09:21;14.32;;;11.80;;
50495;SDS011;38806;51.554;5.704;2023-06-26T01:11:22;16.10;;;11.98;;
50495;SDS011;38806;51.554;5.704;2023-06-26T01:13:22;15.02;;;11.45;;
50495;SDS011;38806;51.554;5.704;2023-06-26T01:15:23;14.25;;;10.95;;
50495;SDS011;38806;51.554;5.704;2023-06-26T01:17:23;13.63;;;11.63;;
50495;SDS011;38806;51.554;5.704;2023-06-26T01:19:24;13.77;;;10.43;;
50495;SDS011;38806;51.554;5.704;2023-06-26T01:21:28;12.50;;;10.93;;
50495;SDS011;38806;51.554;5.704;2023-06-26T01:23:37;13.40;;;11.32;;
50495;SDS011;38806;51.554;5.704;2023-06-26T01:27:58;13.20;;;11.13;;
50495;SDS011;38806;51.554;5.704;2023-06-26T01:30:00;13.98;;;11.23;;
50495;SDS011;38806;51.554;5.704;2023-06-26T01:32:02;12.45;;;10.73;;
50495;SDS011;38806;51.554;5.704;2023-06-26T01:34:02;14.40;;;11.63;;
50495;SDS011;38806;51.554;5.704;2023-06-26T01:36:03;14.15;;;11.85;;
50495;SDS011;38806;51.554;5.704;2023-06-26T01:38:16;16.23;;;12.75;;
50495;SDS011;38806;51.554;5.704;2023-06-26T01:40:16;14.60;;;11.52;;
50495;SDS011;38806;51.554;5.704;2023-06-26T01:42:16;17.03;;;11.33;;
50495;SDS011;38806;51.554;5.704;2023-06-26T01:44:18;13.60;;;10.70;;
50495;SDS011;38806;51.554;5.704;2023-06-26T01:46:24;13.63;;;10.18;;
50495;SDS011;38806;51.554;5.704;2023-06-26T01:48:27;13.65;;;10.32;;
50495;SDS011;38806;51.554;5.704;2023-06-26T01:50:28;13.68;;;8.25;;
50495;SDS011;38806;51.554;5.704;2023-06-26T01:54:30;10.63;;;8.07;;
50495;SDS011;38806;51.554;5.704;2023-06-26T01:56:31;10.80;;;7.90;;
50495;SDS011;38806;51.554;5.704;2023-06-26T01:58:32;12.48;;;8.95;;
50495;SDS011;38806;51.554;5.704;2023-06-26T02:00:32;13.35;;;8.82;;
50495;SDS011;38806;51.554;5.704;2023-06-26T02:02:33;11.02;;;7.85;;
50495;SDS011;38806;51.554;5.704;2023-06-26T02:04:34;13.55;;;8.63;;
50495;SDS011;38806;51.554;5.704;2023-06-26T02:06:34;12.02;;;8.30;;
50495;SDS011;38806;51.554;5.704;2023-06-26T02:08:35;11.35;;;8.32;;
50495;SDS011;38806;51.554;5.704;2023-06-26T02:10:35;14.50;;;8.88;;
50495;SDS011;38806;51.554;5.704;2023-06-26T02:12:36;10.85;;;7.35;;
50495;SDS011;38806;51.554;5.704;2023-06-26T02:14:36;11.25;;;7.20;;
50495;SDS011;38806;51.554;5.704;2023-06-26T02:16:36;10.65;;;7.53;;
50495;SDS011;38806;51.554;5.704;2023-06-26T02:18:37;12.97;;;7.80;;
50495;SDS011;38806;51.554;5.704;2023-06-26T02:20:37;10.93;;;8.60;;
50495;SDS011;38806;51.554;5.704;2023-06-26T02:22:37;11.67;;;7.53;;
50495;SDS011;38806;51.554;5.704;2023-06-26T02:24:37;10.33;;;7.27;;
50495;SDS011;38806;51.554;5.704;2023-06-26T02:26:37;8.87;;;6.30;;
50495;SDS011;38806;51.554;5.704;2023-06-26T02:28:38;10.67;;;6.90;;
50495;SDS011;38806;51.554;5.704;2023-06-26T02:30:38;11.23;;;6.73;;
50495;SDS011;38806;51.554;5.704;2023-06-26T02:32:38;9.77;;;6.63;;
50495;SDS011;38806;51.554;5.704;2023-06-26T02:34:38;12.07;;;6.10;;
50495;SDS011;38806;51.554;5.704;2023-06-26T02:36:39;11.43;;;6.40;;
50495;SDS011;38806;51.554;5.704;2023-06-26T02:38:39;11.68;;;6.43;;
50495;SDS011;38806;51.554;5.704;2023-06-26T02:40:39;11.07;;;6.47;;
50495;SDS011;38806;51.554;5.704;2023-06-26T02:42:40;14.07;;;6.20;;
50495;SDS011;38806;51.554;5.704;2023-06-26T02:44:40;13.20;;;7.28;;
50495;SDS011;38806;51.554;5.704;2023-06-26T02:46:40;12.00;;;7.35;;
50495;SDS011;38806;51.554;5.704;2023-06-26T02:48:41;11.43;;;7.03;;
50495;SDS011;38806;51.554;5.704;2023-06-26T02:50:41;11.25;;;7.25;;
50495;SDS011;38806;51.554;5.704;2023-06-26T02:52:41;11.13;;;7.50;;
50495;SDS011;38806;51.554;5.704;2023-06-26T02:54:42;11.10;;;7.40;;
50495;SDS011;38806;51.554;5.704;2023-06-26T02:56:42;10.70;;;7.32;;
50495;SDS011;38806;51.554;5.704;2023-06-26T02:58:43;11.00;;;7.00;;
50495;SDS011;38806;51.554;5.704;2023-06-26T03:00:44;12.32;;;7.18;;
50495;SDS011;38806;51.554;5.704;2023-06-26T03:02:44;8.93;;;6.38;;
50495;SDS011;38806;51.554;5.704;2023-06-26T03:04:44;9.90;;;7.25;;
50495;SDS011;38806;51.554;5.704;2023-06-26T03:06:45;12.45;;;6.55;;
50495;SDS011;38806;51.554;5.704;2023-06-26T03:08:45;11.15;;;6.70;;
50495;SDS011;38806;51.554;5.704;2023-06-26T03:10:45;12.38;;;6.05;;
50495;SDS011;38806;51.554;5.704;2023-06-26T03:12:45;12.73;;;7.60;;
50495;SDS011;38806;51.554;5.704;2023-06-26T03:14:45;12.73;;;7.43;;
50495;SDS011;38806;51.554;5.704;2023-06-26T03:16:46;10.70;;;6.45;;
50495;SDS011;38806;51.554;5.704;2023-06-26T03:18:46;10.17;;;5.60;;
50495;SDS011;38806;51.554;5.704;2023-06-26T03:20:46;9.93;;;5.97;;
50495;SDS011;38806;51.554;5.704;2023-06-26T03:22:46;14.13;;;6.43;;
50495;SDS011;38806;51.554;5.704;2023-06-26T03:24:46;12.07;;;5.00;;
50495;SDS011;38806;51.554;5.704;2023-06-26T03:26:46;10.90;;;5.60;;
50495;SDS011;38806;51.554;5.704;2023-06-26T03:28:47;9.95;;;5.25;;
50495;SDS011;38806;51.554;5.704;2023-06-26T03:30:47;10.52;;;5.40;;
50495;SDS011;38806;51.554;5.704;2023-06-26T03:32:47;12.70;;;6.20;;
50495;SDS011;38806;51.554;5.704;2023-06-26T03:34:48;15.38;;;5.80;;
50495;SDS011;38806;51.554;5.704;2023-06-26T03:36:48;12.30;;;5.63;;
50495;SDS011;38806;51.554;5.704;2023-06-26T03:38:48;8.70;;;5.37;;
50495;SDS011;38806;51.554;5.704;2023-06-26T03:40:48;9.27;;;5.30;;
50495;SDS011;38806;51.554;5.704;2023-06-26T03:42:48;13.50;;;5.63;;
50495;SDS011;38806;51.554;5.704;2023-06-26T03:44:49;9.48;;;5.85;;
50495;SDS011;38806;51.554;5.704;2023-06-26T03:46:49;12.00;;;5.23;;
50495;SDS011;38806;51.554;5.704;2023-06-26T03:48:49;10.33;;;5.43;;
50495;SDS011;38806;51.554;5.704;2023-06-26T03:50:49;10.33;;;5.17;;
50495;SDS011;38806;51.554;5.704;2023-06-26T03:52:49;12.82;;;5.80;;
50495;SDS011;38806;51.554;5.704;2023-06-26T03:54:51;11.68;;;7.18;;
50495;SDS011;38806;51.554;5.704;2023-06-26T03:56:51;10.60;;;4.97;;
50495;SDS011;38806;51.554;5.704;2023-06-26T03:58:51;9.65;;;6.07;;
50495;SDS011;38806;51.554;5.704;2023-06-26T04:00:52;11.82;;;5.68;;
50495;SDS011;38806;51.554;5.704;2023-06-26T04:02:53;10.75;;;6.13;;
50495;SDS011;38806;51.554;5.704;2023-06-26T04:04:53;11.40;;;6.33;;
50495;SDS011;38806;51.554;5.704;2023-06-26T04:06:53;12.13;;;6.87;;
50495;SDS011;38806;51.554;5.704;2023-06-26T04:08:53;10.43;;;6.47;;
50495;SDS011;38806;51.554;5.704;2023-06-26T04:10:54;11.77;;;6.23;;
50495;SDS011;38806;51.554;5.704;2023-06-26T04:12:55;15.90;;;7.10;;
50495;SDS011;38806;51.554;5.704;2023-06-26T04:14:55;14.05;;;6.78;;
50495;SDS011;38806;51.554;5.704;2023-06-26T04:16:55;16.50;;;6.68;;
50495;SDS011;38806;51.554;5.704;2023-06-26T04:18:57;17.63;;;6.28;;
50495;SDS011;38806;51.554;5.704;2023-06-26T04:21:13;12.33;;;7.43;;
50495;SDS011;38806;51.554;5.704;2023-06-26T04:23:13;12.90;;;6.03;;
50495;SDS011;38806;51.554;5.704;2023-06-26T04:25:13;14.15;;;6.75;;
50495;SDS011;38806;51.554;5.704;2023-06-26T04:27:14;12.90;;;7.32;;
50495;SDS011;38806;51.554;5.704;2023-06-26T04:29:14;15.85;;;6.70;;
50495;SDS011;38806;51.554;5.704;2023-06-26T04:31:14;13.10;;;7.00;;
50495;SDS011;38806;51.554;5.704;2023-06-26T04:33:14;9.67;;;5.80;;
50495;SDS011;38806;51.554;5.704;2023-06-26T04:35:15;16.85;;;7.57;;
50495;SDS011;38806;51.554;5.704;2023-06-26T04:37:15;15.27;;;6.55;;
50495;SDS011;38806;51.554;5.704;2023-06-26T04:39:17;13.75;;;6.65;;
50495;SDS011;38806;51.554;5.704;2023-06-26T04:41:17;15.32;;;6.85;;
50495;SDS011;38806;51.554;5.704;2023-06-26T04:43:17;12.93;;;6.93;;
50495;SDS011;38806;51.554;5.704;2023-06-26T04:45:17;15.03;;;6.47;;
50495;SDS011;38806;51.554;5.704;2023-06-26T04:47:17;17.23;;;8.27;;
50495;SDS011;38806;51.554;5.704;2023-06-26T04:49:18;11.68;;;6.95;;
50495;SDS011;38806;51.554;5.704;2023-06-26T04:51:18;18.27;;;7.50;;
50495;SDS011;38806;51.554;5.704;2023-06-26T04:53:21;17.88;;;9.48;;
50495;SDS011;38806;51.554;5.704;2023-06-26T04:55:23;16.17;;;8.32;;
50495;SDS011;38806;51.554;5.704;2023-06-26T04:57:24;15.10;;;9.43;;
50495;SDS011;38806;51.554;5.704;2023-06-26T04:59:24;15.03;;;7.57;;
50495;SDS011;38806;51.554;5.704;2023-06-26T05:01:24;12.77;;;7.10;;
50495;SDS011;38806;51.554;5.704;2023-06-26T05:03:24;23.17;;;9.23;;
50495;SDS011;38806;51.554;5.704;2023-06-26T05:05:25;15.93;;;7.87;;
50495;SDS011;38806;51.554;5.704;2023-06-26T05:07:25;16.77;;;7.75;;
50495;SDS011;38806;51.554;5.704;2023-06-26T05:09:25;13.57;;;7.47;;
50495;SDS011;38806;51.554;5.704;2023-06-26T05:11:25;15.27;;;7.95;;
50495;SDS011;38806;51.554;5.704;2023-06-26T05:13:26;22.50;;;8.85;;
50495;SDS011;38806;51.554;5.704;2023-06-26T05:15:26;15.82;;;7.35;;
50495;SDS011;38806;51.554;5.704;2023-06-26T05:17:26;21.10;;;9.87;;
50495;SDS011;38806;51.554;5.704;2023-06-26T05:19:26;16.48;;;8.48;;
50495;SDS011;38806;51.554;5.704;2023-06-26T05:21:27;18.08;;;7.53;;
50495;SDS011;38806;51.554;5.704;2023-06-26T05:23:28;15.80;;;8.48;;
50495;SDS011;38806;51.554;5.704;2023-06-26T05:25:30;18.35;;;8.65;;
50495;SDS011;38806;51.554;5.704;2023-06-26T05:27:30;26.30;;;8.00;;
50495;SDS011;38806;51.554;5.704;2023-06-26T05:29:31;13.00;;;7.40;;
50495;SDS011;38806;51.554;5.704;2023-06-26T05:31:32;13.75;;;7.32;;
50495;SDS011;38806;51.554;5.704;2023-06-26T05:33:34;17.42;;;7.85;;
50495;SDS011;38806;51.554;5.704;2023-06-26T05:35:35;15.25;;;7.70;;
50495;SDS011;38806;51.554;5.704;2023-06-26T05:37:36;13.15;;;7.70;;
50495;SDS011;38806;51.554;5.704;2023-06-26T05:39:36;19.42;;;7.70;;
50495;SDS011;38806;51.554;5.704;2023-06-26T05:41:36;17.50;;;7.30;;
50495;SDS011;38806;51.554;5.704;2023-06-26T05:43:37;18.33;;;9.80;;
50495;SDS011;38806;51.554;5.704;2023-06-26T05:45:37;18.30;;;7.93;;
50495;SDS011;38806;51.554;5.704;2023-06-26T05:47:37;17.27;;;7.95;;
50495;SDS011;38806;51.554;5.704;2023-06-26T05:49:38;15.18;;;7.80;;
50495;SDS011;38806;51.554;5.704;2023-06-26T05:51:38;15.00;;;6.37;;
50495;SDS011;38806;51.554;5.704;2023-06-26T05:53:38;17.15;;;7.40;;
50495;SDS011;38806;51.554;5.704;2023-06-26T05:55:39;18.40;;;7.45;;
50495;SDS011;38806;51.554;5.704;2023-06-26T05:57:41;16.67;;;7.93;;
50495;SDS011;38806;51.554;5.704;2023-06-26T05:59:42;18.60;;;7.43;;
50495;SDS011;38806;51.554;5.704;2023-06-26T06:01:42;19.23;;;7.15;;
50495;SDS011;38806;51.554;5.704;2023-06-26T06:03:43;13.60;;;6.63;;
50495;SDS011;38806;51.554;5.704;2023-06-26T06:05:43;16.43;;;6.47;;
50495;SDS011;38806;51.554;5.704;2023-06-26T06:07:43;15.52;;;6.80;;
50495;SDS011;38806;51.554;5.704;2023-06-26T06:09:43;17.33;;;8.07;;
50495;SDS011;38806;51.554;5.704;2023-06-26T06:11:44;15.35;;;6.85;;
50495;SDS011;38806;51.554;5.704;2023-06-26T06:13:44;17.63;;;6.82;;
50495;SDS011;38806;51.554;5.704;2023-06-26T06:15:44;16.70;;;7.87;;
50495;SDS011;38806;51.554;5.704;2023-06-26T06:17:44;19.05;;;6.53;;
50495;SDS011;38806;51.554;5.704;2023-06-26T06:19:45;20.13;;;7.55;;
50495;SDS011;38806;51.554;5.704;2023-06-26T06:21:45;23.75;;;7.75;;
50495;SDS011;38806;51.554;5.704;2023-06-26T06:23:45;21.33;;;7.18;;
50495;SDS011;38806;51.554;5.704;2023-06-26T06:25:45;14.82;;;6.85;;
50495;SDS011;38806;51.554;5.704;2023-06-26T06:27:46;13.07;;;7.13;;
50495;SDS011;38806;51.554;5.704;2023-06-26T06:29:46;19.27;;;7.38;;
50495;SDS011;38806;51.554;5.704;2023-06-26T06:31:46;13.05;;;5.85;;
50495;SDS011;38806;51.554;5.704;2023-06-26T06:33:46;16.08;;;6.85;;
50495;SDS011;38806;51.554;5.704;2023-06-26T06:35:46;19.00;;;5.97;;
50495;SDS011;38806;51.554;5.704;2023-06-26T06:37:47;19.08;;;6.03;;
50495;SDS011;38806;51.554;5.704;2023-06-26T06:39:47;11.57;;;6.28;;
50495;SDS011;38806;51.554;5.704;2023-06-26T06:41:47;10.97;;;5.30;;
50495;SDS011;38806;51.554;5.704;2023-06-26T06:43:47;12.80;;;5.72;;
50495;SDS011;38806;51.554;5.704;2023-06-26T06:45:48;14.30;;;6.20;;
50495;SDS011;38806;51.554;5.704;2023-06-26T06:47:48;11.15;;;4.30;;
50495;SDS011;38806;51.554;5.704;2023-06-26T06:49:48;14.50;;;4.97;;
50495;SDS011;38806;51.554;5.704;2023-06-26T06:51:48;13.40;;;5.13;;
50495;SDS011;38806;51.554;5.704;2023-06-26T06:53:48;16.77;;;5.13;;
50495;SDS011;38806;51.554;5.704;2023-06-26T06:55:49;18.00;;;5.67;;
50495;SDS011;38806;51.554;5.704;2023-06-26T06:57:49;15.32;;;5.85;;
50495;SDS011;38806;51.554;5.704;2023-06-26T06:59:50;10.73;;;4.60;;
50495;SDS011;38806;51.554;5.704;2023-06-26T07:01:50;16.65;;;5.50;;
50495;SDS011;38806;51.554;5.704;2023-06-26T07:03:51;10.73;;;5.15;;
50495;SDS011;38806;51.554;5.704;2023-06-26T07:05:51;15.18;;;4.85;;
50495;SDS011;38806;51.554;5.704;2023-06-26T07:07:51;11.97;;;4.17;;
50495;SDS011;38806;51.554;5.704;2023-06-26T07:09:51;10.50;;;4.27;;
50495;SDS011;38806;51.554;5.704;2023-06-26T07:11:51;9.57;;;4.30;;
50495;SDS011;38806;51.554;5.704;2023-06-26T07:13:52;8.67;;;4.20;;
50495;SDS011;38806;51.554;5.704;2023-06-26T07:15:52;11.02;;;4.00;;
50495;SDS011;38806;51.554;5.704;2023-06-26T07:17:52;11.18;;;4.78;;
50495;SDS011;38806;51.554;5.704;2023-06-26T07:19:52;10.77;;;4.27;;
50495;SDS011;38806;51.554;5.704;2023-06-26T07:21:52;11.48;;;4.38;;
50495;SDS011;38806;51.554;5.704;2023-06-26T07:23:53;10.97;;;5.03;;
50495;SDS011;38806;51.554;5.704;2023-06-26T07:25:53;13.93;;;5.13;;
50495;SDS011;38806;51.554;5.704;2023-06-26T07:27:53;9.63;;;4.07;;
50495;SDS011;38806;51.554;5.704;2023-06-26T07:29:53;13.93;;;5.87;;
50495;SDS011;38806;51.554;5.704;2023-06-26T07:31:53;10.47;;;3.50;;
50495;SDS011;38806;51.554;5.704;2023-06-26T07:33:54;10.93;;;5.77;;
50495;SDS011;38806;51.554;5.704;2023-06-26T07:35:54;15.23;;;5.23;;
50495;SDS011;38806;51.554;5.704;2023-06-26T07:37:54;10.97;;;4.37;;
50495;SDS011;38806;51.554;5.704;2023-06-26T07:39:54;9.97;;;4.97;;
50495;SDS011;38806;51.554;5.704;2023-06-26T07:41:55;7.45;;;3.40;;
50495;SDS011;38806;51.554;5.704;2023-06-26T07:43:55;8.20;;;3.72;;
50495;SDS011;38806;51.554;5.704;2023-06-26T07:45:55;8.90;;;4.67;;
50495;SDS011;38806;51.554;5.704;2023-06-26T07:47:58;14.65;;;3.60;;
50495;SDS011;38806;51.554;5.704;2023-06-26T07:49:58;9.97;;;4.43;;
50495;SDS011;38806;51.554;5.704;2023-06-26T07:51:58;8.60;;;3.57;;
50495;SDS011;38806;51.554;5.704;2023-06-26T07:53:59;13.30;;;5.32;;
50495;SDS011;38806;51.554;5.704;2023-06-26T07:55:59;8.02;;;4.43;;
50495;SDS011;38806;51.554;5.704;2023-06-26T07:57:59;7.03;;;4.00;;
50495;SDS011;38806;51.554;5.704;2023-06-26T08:00:01;11.23;;;4.50;;
50495;SDS011;38806;51.554;5.704;2023-06-26T08:02:01;6.80;;;4.22;;
50495;SDS011;38806;51.554;5.704;2023-06-26T08:04:01;10.27;;;5.05;;
50495;SDS011;38806;51.554;5.704;2023-06-26T08:06:02;11.97;;;5.70;;
50495;SDS011;38806;51.554;5.704;2023-06-26T08:08:03;7.90;;;5.13;;
50495;SDS011;38806;51.554;5.704;2023-06-26T08:10:03;9.85;;;4.15;;
50495;SDS011;38806;51.554;5.704;2023-06-26T08:12:04;10.77;;;5.10;;
50495;SDS011;38806;51.554;5.704;2023-06-26T08:14:04;8.27;;;5.18;;
50495;SDS011;38806;51.554;5.704;2023-06-26T08:16:04;12.70;;;5.40;;
50495;SDS011;38806;51.554;5.704;2023-06-26T08:18:04;9.40;;;5.07;;
50495;SDS011;38806;51.554;5.704;2023-06-26T08:20:05;12.55;;;4.85;;
50495;SDS011;38806;51.554;5.704;2023-06-26T08:22:07;10.00;;;5.18;;
50495;SDS011;38806;51.554;5.704;2023-06-26T08:24:08;7.30;;;5.32;;
50495;SDS011;38806;51.554;5.704;2023-06-26T08:26:08;10.52;;;5.88;;
50495;SDS011;38806;51.554;5.704;2023-06-26T08:28:08;8.03;;;6.00;;
50495;SDS011;38806;51.554;5.704;2023-06-26T08:30:08;6.40;;;4.93;;
50495;SDS011;38806;51.554;5.704;2023-06-26T08:32:09;8.38;;;4.70;;
50495;SDS011;38806;51.554;5.704;2023-06-26T08:34:09;8.30;;;5.57;;
50495;SDS011;38806;51.554;5.704;2023-06-26T08:36:09;8.00;;;4.80;;
50495;SDS011;38806;51.554;5.704;2023-06-26T08:38:09;8.37;;;3.73;;
50495;SDS011;38806;51.554;5.704;2023-06-26T08:40:10;9.82;;;3.88;;
50495;SDS011;38806;51.554;5.704;2023-06-26T08:42:10;6.13;;;4.05;;
50495;SDS011;38806;51.554;5.704;2023-06-26T08:44:11;8.65;;;3.30;;
50495;SDS011;38806;51.554;5.704;2023-06-26T08:46:12;6.32;;;3.08;;
50495;SDS011;38806;51.554;5.704;2023-06-26T08:48:12;3.80;;;1.70;;
50495;SDS011;38806;51.554;5.704;2023-06-26T08:50:13;5.05;;;2.00;;
50495;SDS011;38806;51.554;5.704;2023-06-26T08:52:19;6.32;;;2.50;;
50495;SDS011;38806;51.554;5.704;2023-06-26T08:54:21;3.83;;;1.50;;
50495;SDS011;38806;51.554;5.704;2023-06-26T08:56:22;4.75;;;1.48;;
50495;SDS011;38806;51.554;5.704;2023-06-26T08:58:24;5.82;;;1.75;;
50495;SDS011;38806;51.554;5.704;2023-06-26T09:00:24;7.75;;;1.55;;
50495;SDS011;38806;51.554;5.704;2023-06-26T09:02:25;6.78;;;1.55;;
50495;SDS011;38806;51.554;5.704;2023-06-26T09:04:25;5.30;;;1.83;;
50495;SDS011;38806;51.554;5.704;2023-06-26T09:06:25;18.00;;;3.17;;
50495;SDS011;38806;51.554;5.704;2023-06-26T09:08:25;5.57;;;1.70;;
50495;SDS011;38806;51.554;5.704;2023-06-26T09:10:26;14.77;;;2.20;;
50495;SDS011;38806;51.554;5.704;2023-06-26T09:12:26;4.40;;;2.05;;
50495;SDS011;38806;51.554;5.704;2023-06-26T09:14:27;6.30;;;2.17;;
50495;SDS011;38806;51.554;5.704;2023-06-26T09:16:27;4.68;;;1.67;;
50495;SDS011;38806;51.554;5.704;2023-06-26T09:18:27;3.63;;;1.10;;
50495;SDS011;38806;51.554;5.704;2023-06-26T09:20:28;3.80;;;2.37;;
50495;SDS011;38806;51.554;5.704;2023-06-26T09:22:29;3.75;;;1.45;;
50495;SDS011;38806;51.554;5.704;2023-06-26T09:24:30;8.13;;;1.85;;
50495;SDS011;38806;51.554;5.704;2023-06-26T09:26:30;7.53;;;1.95;;
50495;SDS011;38806;51.554;5.704;2023-06-26T09:28:34;4.45;;;1.77;;
50495;SDS011;38806;51.554;5.704;2023-06-26T09:30:35;5.82;;;1.50;;
50495;SDS011;38806;51.554;5.704;2023-06-26T09:32:36;6.80;;;1.50;;
50495;SDS011;38806;51.554;5.704;2023-06-26T09:34:36;7.97;;;1.70;;
50495;SDS011;38806;51.554;5.704;2023-06-26T09:36:37;4.35;;;1.30;;
50495;SDS011;38806;51.554;5.704;2023-06-26T09:38:37;3.58;;;1.00;;
50495;SDS011;38806;51.554;5.704;2023-06-26T09:40:37;5.60;;;1.27;;
50495;SDS011;38806;51.554;5.704;2023-06-26T09:42:40;4.60;;;1.48;;
50495;SDS011;38806;51.554;5.704;2023-06-26T09:44:44;5.10;;;1.48;;
50495;SDS011;38806;51.554;5.704;2023-06-26T09:46:45;4.80;;;1.30;;
50495;SDS011;38806;51.554;5.704;2023-06-26T09:48:46;4.03;;;1.30;;
50495;SDS011;38806;51.554;5.704;2023-06-26T09:50:47;2.65;;;1.17;;
50495;SDS011;38806;51.554;5.704;2023-06-26T09:52:47;3.60;;;1.23;;
50495;SDS011;38806;51.554;5.704;2023-06-26T09:54:47;5.53;;;1.20;;
50495;SDS011;38806;51.554;5.704;2023-06-26T09:56:48;6.95;;;1.55;;
50495;SDS011;38806;51.554;5.704;2023-06-26T09:58:49;5.73;;;1.37;;
50495;SDS011;38806;51.554;5.704;2023-06-26T10:00:49;3.90;;;1.15;;
50495;SDS011;38806;51.554;5.704;2023-06-26T10:02:50;4.85;;;1.20;;
50495;SDS011;38806;51.554;5.704;2023-06-26T10:04:50;5.13;;;1.37;;
50495;SDS011;38806;51.554;5.704;2023-06-26T10:06:51;5.55;;;1.48;;
50495;SDS011;38806;51.554;5.704;2023-06-26T10:08:54;4.75;;;1.50;;
50495;SDS011;38806;51.554;5.704;2023-06-26T10:10:56;3.45;;;1.20;;
50495;SDS011;38806;51.554;5.704;2023-06-26T10:12:59;2.90;;;1.08;;
50495;SDS011;38806;51.554;5.704;2023-06-26T10:15:00;2.88;;;1.02;;
50495;SDS011;38806;51.554;5.704;2023-06-26T10:17:03;5.63;;;1.38;;
50495;SDS011;38806;51.554;5.704;2023-06-26T10:19:05;3.63;;;1.90;;
50495;SDS011;38806;51.554;5.704;2023-06-26T10:21:06;7.05;;;1.48;;
50495;SDS011;38806;51.554;5.704;2023-06-26T10:23:08;6.05;;;2.00;;
50495;SDS011;38806;51.554;5.704;2023-06-26T10:25:08;4.25;;;1.35;;
50495;SDS011;38806;51.554;5.704;2023-06-26T10:27:19;9.45;;;1.77;;
50495;SDS011;38806;51.554;5.704;2023-06-26T10:29:19;4.05;;;1.30;;
50495;SDS011;38806;51.554;5.704;2023-06-26T10:31:21;3.50;;;1.23;;
50495;SDS011;38806;51.554;5.704;2023-06-26T10:33:22;4.28;;;1.98;;
50495;SDS011;38806;51.554;5.704;2023-06-26T10:35:23;3.22;;;1.45;;
50495;SDS011;38806;51.554;5.704;2023-06-26T10:41:46;2.63;;;1.30;;
50495;SDS011;38806;51.554;5.704;2023-06-26T10:43:48;5.77;;;1.73;;
50495;SDS011;38806;51.554;5.704;2023-06-26T10:45:49;3.70;;;1.20;;
50495;SDS011;38806;51.554;5.704;2023-06-26T10:47:54;3.97;;;1.77;;
50495;SDS011;38806;51.554;5.704;2023-06-26T10:49:54;7.80;;;1.20;;
50495;SDS011;38806;51.554;5.704;2023-06-26T10:51:54;5.47;;;1.38;;
50495;SDS011;38806;51.554;5.704;2023-06-26T10:53:57;2.90;;;1.00;;
50495;SDS011;38806;51.554;5.704;2023-06-26T10:55:59;4.90;;;1.23;;
50495;SDS011;38806;51.554;5.704;2023-06-26T10:58:00;3.65;;;1.13;;
50495;SDS011;38806;51.554;5.704;2023-06-26T11:00:08;3.72;;;1.30;;
50495;SDS011;38806;51.554;5.704;2023-06-26T11:02:10;2.83;;;1.13;;
50495;SDS011;38806;51.554;5.704;2023-06-26T11:04:10;5.25;;;1.30;;
50495;SDS011;38806;51.554;5.704;2023-06-26T11:08:14;5.13;;;1.20;;
50495;SDS011;38806;51.554;5.704;2023-06-26T11:10:19;6.50;;;2.15;;
50495;SDS011;38806;51.554;5.704;2023-06-26T11:14:35;6.10;;;1.40;;
50495;SDS011;38806;51.554;5.704;2023-06-26T11:16:35;4.05;;;1.20;;
50495;SDS011;38806;51.554;5.704;2023-06-26T11:18:36;5.68;;;1.40;;
50495;SDS011;38806;51.554;5.704;2023-06-26T11:20:36;6.28;;;1.48;;
50495;SDS011;38806;51.554;5.704;2023-06-26T11:22:37;4.00;;;1.10;;
50495;SDS011;38806;51.554;5.704;2023-06-26T11:24:37;2.92;;;0.70;;
50495;SDS011;38806;51.554;5.704;2023-06-26T11:26:41;3.13;;;1.15;;
50495;SDS011;38806;51.554;5.704;2023-06-26T11:28:48;7.63;;;2.20;;
50495;SDS011;38806;51.554;5.704;2023-06-26T11:30:49;3.80;;;1.20;;
50495;SDS011;38806;51.554;5.704;2023-06-26T11:32:49;4.20;;;1.50;;
50495;SDS011;38806;51.554;5.704;2023-06-26T11:34:49;6.27;;;0.90;;
50495;SDS011;38806;51.554;5.704;2023-06-26T11:36:49;3.73;;;1.20;;
50495;SDS011;38806;51.554;5.704;2023-06-26T11:38:56;7.05;;;1.63;;
50495;SDS011;38806;51.554;5.704;2023-06-26T11:40:57;3.08;;;1.65;;
50495;SDS011;38806;51.554;5.704;2023-06-26T11:43:02;6.75;;;2.60;;
50495;SDS011;38806;51.554;5.704;2023-06-26T11:45:06;3.47;;;1.20;;
50495;SDS011;38806;51.554;5.704;2023-06-26T11:47:06;4.88;;;1.10;;
50495;SDS011;38806;51.554;5.704;2023-06-26T11:49:07;3.37;;;1.07;;
50495;SDS011;38806;51.554;5.704;2023-06-26T11:51:07;3.03;;;1.27;;
50495;SDS011;38806;51.554;5.704;2023-06-26T11:53:07;4.97;;;1.70;;
50495;SDS011;38806;51.554;5.704;2023-06-26T11:55:07;4.60;;;1.30;;
50495;SDS011;38806;51.554;5.704;2023-06-26T11:57:08;4.20;;;1.40;;
50495;SDS011;38806;51.554;5.704;2023-06-26T11:59:10;6.57;;;1.85;;
50495;SDS011;38806;51.554;5.704;2023-06-26T12:01:10;6.78;;;1.80;;
50495;SDS011;38806;51.554;5.704;2023-06-26T12:03:15;4.53;;;1.15;;
50495;SDS011;38806;51.554;5.704;2023-06-26T12:05:16;2.05;;;1.10;;
50495;SDS011;38806;51.554;5.704;2023-06-26T12:07:16;3.25;;;1.02;;
50495;SDS011;38806;51.554;5.704;2023-06-26T12:09:18;5.53;;;1.80;;
50495;SDS011;38806;51.554;5.704;2023-06-26T12:11:18;3.95;;;1.48;;
50495;SDS011;38806;51.554;5.704;2023-06-26T12:13:19;4.43;;;1.15;;